Time;durP1;ratioP1;P1;durP2;ratioP2;P2;SDS_P1;SDS_P2;PMS_P1;PMS_P2;Temp;Humidity;BMP_temperature;BMP_pressure;BME280_temperature;BME280_humidity;BME280_pressure;Samples;Min_cycle;Max_cycle;Signal;HPM_P1;HPM_P2
2021/09/15 00:01:20;;;;;;;22.00;9.45;;;30.40;83.50;;;;;;5044177;28;20045;-50
2021/09/15 00:03:47;;;;;;;23.92;7.85;;;30.40;83.70;;;;;;5043835;28;20025;-51
2021/09/15 00:06:13;;;;;;;13.65;7.22;;;30.30;83.90;;;;;;5028472;28;20030;-51
2021/09/15 00:08:40;;;;;;;18.77;8.27;;;30.20;84.10;;;;;;5024201;28;20049;-53
2021/09/15 00:11:07;;;;;;;20.92;7.22;;;30.10;84.30;;;;;;5023911;28;20030;-51
2021/09/15 00:13:33;;;;;;;18.55;6.82;;;30.00;84.10;;;;;;5023999;28;20033;-52
2021/09/15 00:16:00;;;;;;;17.35;5.75;;;30.00;84.40;;;;;;5034375;28;20056;-55
2021/09/15 00:18:27;;;;;;;13.55;4.82;;;30.00;84.40;;;;;;5043893;28;20017;-50
2021/09/15 00:20:53;;;;;;;13.38;5.00;;;30.00;84.60;;;;;;5044083;28;20163;-55
2021/09/15 00:23:20;;;;;;;10.50;4.32;;;30.00;84.60;;;;;;5043956;28;20052;-54
2021/09/15 00:25:47;;;;;;;16.08;4.95;;;29.90;84.40;;;;;;5043485;28;20033;-51
2021/09/15 00:28:14;;;;;;;10.82;4.22;;;29.80;84.40;;;;;;5043682;28;20080;-54
2021/09/15 00:30:40;;;;;;;9.73;3.88;;;29.80;84.50;;;;;;5043689;28;20076;-58
2021/09/15 00:33:07;;;;;;;12.77;4.47;;;29.70;84.60;;;;;;5043674;28;20031;-51
2021/09/15 00:35:34;;;;;;;14.82;4.30;;;29.70;84.60;;;;;;5043141;28;20021;-55
2021/09/15 00:38:01;;;;;;;11.60;4.20;;;29.60;84.70;;;;;;5043480;28;20025;-52
2021/09/15 00:40:28;;;;;;;10.52;4.20;;;29.60;84.70;;;;;;5043259;28;20018;-53
2021/09/15 00:42:55;;;;;;;10.05;3.72;;;29.60;84.60;;;;;;5043429;28;20101;-53
2021/09/15 00:45:22;;;;;;;9.98;3.92;;;29.50;84.60;;;;;;5043430;28;20025;-52
2021/09/15 00:47:49;;;;;;;6.13;3.42;;;29.50;84.60;;;;;;5042367;28;20033;-58
2021/09/15 00:50:16;;;;;;;17.20;5.20;;;29.50;84.60;;;;;;5043306;28;20013;-54
2021/09/15 00:52:44;;;;;;;15.25;4.90;;;29.50;84.40;;;;;;5044011;28;20055;-55
2021/09/15 00:55:11;;;;;;;11.52;4.70;;;29.40;84.60;;;;;;5043063;28;20022;-54
2021/09/15 00:57:39;;;;;;;13.88;4.28;;;29.50;84.40;;;;;;5043796;28;20324;-54
2021/09/15 01:00:07;;;;;;;8.85;4.05;;;29.40;84.40;;;;;;5043256;28;20261;-55
2021/09/15 01:02:34;;;;;;;15.30;4.10;;;29.40;84.80;;;;;;5043936;28;20036;-54
2021/09/15 01:05:00;;;;;;;13.82;3.58;;;29.40;84.70;;;;;;5043119;28;20250;-56
2021/09/15 01:07:31;;;;;;;9.35;4.10;;;29.30;84.50;;;;;;5043176;28;20418;-54
2021/09/15 01:09:58;;;;;;;13.98;4.25;;;29.30;84.70;;;;;;5046834;28;20026;-55
2021/09/15 01:12:25;;;;;;;14.18;4.10;;;29.30;84.80;;;;;;5047539;28;20045;-52
2021/09/15 01:14:52;;;;;;;12.75;4.93;;;29.30;84.60;;;;;;5046494;28;20029;-51
2021/09/15 01:17:19;;;;;;;8.73;4.45;;;29.30;84.50;;;;;;5047359;28;20025;-53
2021/09/15 01:19:46;;;;;;;9.32;3.78;;;29.20;84.10;;;;;;5046997;28;20025;-56
2021/09/15 01:22:13;;;;;;;13.15;4.43;;;29.10;83.60;;;;;;5046737;28;20049;-50
2021/09/15 01:24:39;;;;;;;8.77;3.78;;;29.20;83.60;;;;;;5047358;28;20021;-57
2021/09/15 01:27:06;;;;;;;13.35;3.65;;;29.20;83.20;;;;;;5048122;28;20191;-54
2021/09/15 01:29:34;;;;;;;8.52;3.40;;;29.20;83.20;;;;;;5046832;28;20025;-54
2021/09/15 01:32:09;;;;;;;12.13;3.22;;;29.20;83.10;;;;;;5046646;28;20040;-55
2021/09/15 01:34:45;;;;;;;15.00;4.03;;;29.10;82.90;;;;;;5046723;28;20025;-54
2021/09/15 01:37:14;;;;;;;10.18;3.67;;;29.10;82.90;;;;;;5046627;28;20040;-54
2021/09/15 01:39:41;;;;;;;15.20;3.78;;;29.20;82.60;;;;;;5046499;28;20298;-53
2021/09/15 01:42:09;;;;;;;8.88;3.67;;;29.10;82.80;;;;;;5045174;28;20037;-53
2021/09/15 01:44:43;;;;;;;9.32;3.40;;;29.10;82.30;;;;;;5046694;28;20021;-56
2021/09/15 01:47:13;;;;;;;9.23;3.40;;;29.10;82.00;;;;;;5046487;28;20170;-56
2021/09/15 01:49:42;;;;;;;11.48;3.90;;;29.00;81.40;;;;;;5047542;28;20269;-53
2021/09/15 01:52:11;;;;;;;12.98;3.72;;;29.00;81.80;;;;;;5046190;28;20325;-50
2021/09/15 01:54:38;;;;;;;13.23;4.07;;;28.90;81.40;;;;;;5046368;28;20021;-59
2021/09/15 01:57:06;;;;;;;13.35;3.75;;;28.90;81.10;;;;;;5046476;28;20301;-55
2021/09/15 01:59:33;;;;;;;8.02;3.05;;;29.00;81.00;;;;;;5046480;28;20245;-52
2021/09/15 02:01:59;;;;;;;9.43;3.30;;;28.90;80.80;;;;;;5046169;28;20021;-53
2021/09/15 02:04:26;;;;;;;24.00;12.60;;;28.90;80.30;;;;;;5046129;28;20021;-55
2021/09/15 02:06:56;;;;;;;77.18;43.10;;;28.90;80.40;;;;;;5044194;28;20033;-53
2021/09/15 02:09:23;;;;;;;82.18;46.15;;;28.90;80.10;;;;;;5044700;28;20071;-53
2021/09/15 02:11:50;;;;;;;49.90;28.55;;;28.90;80.10;;;;;;5046260;28;20033;-54
2021/09/15 02:14:17;;;;;;;29.38;14.30;;;28.80;80.30;;;;;;5045963;28;20022;-54
2021/09/15 02:16:44;;;;;;;16.00;7.95;;;28.90;80.10;;;;;;5045911;28;20049;-57
2021/09/15 02:19:11;;;;;;;14.43;6.55;;;28.80;80.10;;;;;;5045774;28;20059;-55
2021/09/15 02:21:39;;;;;;;12.57;5.18;;;28.80;79.90;;;;;;5045850;28;20071;-52
2021/09/15 02:24:07;;;;;;;8.13;4.13;;;28.80;80.00;;;;;;5045779;28;20072;-54
2021/09/15 02:26:34;;;;;;;11.75;3.75;;;28.70;80.00;;;;;;5046078;28;20179;-49
2021/09/15 02:29:01;;;;;;;11.38;3.47;;;28.80;79.90;;;;;;5045823;28;20345;-53
2021/09/15 02:31:32;;;;;;;8.05;3.30;;;28.80;80.00;;;;;;5045843;28;20029;-55
2021/09/15 02:33:59;;;;;;;9.15;3.50;;;28.80;79.50;;;;;;5045297;28;20060;-55
2021/09/15 02:36:26;;;;;;;14.25;4.57;;;28.80;79.20;;;;;;5044198;28;20086;-57
2021/09/15 02:38:53;;;;;;;10.60;4.43;;;28.80;79.10;;;;;;5045303;28;20053;-54
2021/09/15 02:41:20;;;;;;;15.23;6.00;;;28.80;79.60;;;;;;5045702;28;20025;-52
2021/09/15 02:43:47;;;;;;;27.50;9.02;;;28.80;79.60;;;;;;5045369;28;20017;-57
2021/09/15 02:46:14;;;;;;;27.35;7.70;;;28.80;79.60;;;;;;5045684;28;20017;-53
2021/09/15 02:48:40;;;;;;;15.45;5.55;;;28.80;79.70;;;;;;5045276;28;20017;-57
2021/09/15 02:51:07;;;;;;;9.30;3.47;;;28.80;79.80;;;;;;5045420;28;20025;-55
2021/09/15 02:53:34;;;;;;;9.43;3.83;;;28.80;79.40;;;;;;5045057;28;20318;-54
2021/09/15 02:56:01;;;;;;;7.80;3.30;;;28.70;79.50;;;;;;5045425;28;20099;-54
2021/09/15 02:58:28;;;;;;;5.32;3.03;;;28.70;79.50;;;;;;5044814;28;20017;-56
2021/09/15 03:00:54;;;;;;;8.13;2.92;;;28.60;79.30;;;;;;5044990;28;20025;-57
2021/09/15 03:03:21;;;;;;;10.02;3.20;;;28.60;79.20;;;;;;5044894;28;20211;-52
2021/09/15 03:05:48;;;;;;;8.30;2.92;;;28.40;79.50;;;;;;5044843;28;20025;-56
2021/09/15 03:08:15;;;;;;;10.73;3.20;;;28.40;79.20;;;;;;5044859;28;20101;-54
2021/09/15 03:10:41;;;;;;;6.38;2.67;;;28.40;79.30;;;;;;5044854;28;20052;-53
2021/09/15 03:13:08;;;;;;;14.43;3.13;;;28.50;79.20;;;;;;5044474;28;20028;-52
2021/09/15 03:15:34;;;;;;;4.90;2.55;;;28.50;79.40;;;;;;5044893;28;20030;-54
2021/09/15 03:18:01;;;;;;;8.80;2.53;;;28.50;79.30;;;;;;5044593;28;20048;-52
2021/09/15 03:20:28;;;;;;;8.52;3.03;;;28.50;79.20;;;;;;5044520;28;20039;-52
2021/09/15 03:22:54;;;;;;;8.23;3.10;;;28.40;79.60;;;;;;5044451;28;20017;-54
2021/09/15 03:25:21;;;;;;;8.95;2.45;;;28.40;79.30;;;;;;5044677;28;20028;-52
2021/09/15 03:27:47;;;;;;;9.82;2.42;;;28.40;79.40;;;;;;5044991;28;20036;-55
2021/09/15 03:30:14;;;;;;;9.57;3.08;;;28.40;79.80;;;;;;5044013;28;20040;-53
2021/09/15 03:32:41;;;;;;;21.60;3.90;;;28.30;80.20;;;;;;5044759;28;20025;-50
2021/09/15 03:35:08;;;;;;;10.30;3.67;;;28.30;80.20;;;;;;5044440;28;20218;-53
2021/09/15 03:37:34;;;;;;;16.08;4.10;;;28.20;80.40;;;;;;5044351;28;20014;-57
2021/09/15 03:40:01;;;;;;;16.13;4.30;;;28.30;80.80;;;;;;5044255;28;20049;-56
2021/09/15 03:42:28;;;;;;;21.58;4.07;;;28.30;81.30;;;;;;5044747;28;20049;-56
2021/09/15 03:44:54;;;;;;;21.67;4.70;;;28.30;81.70;;;;;;5044240;28;20113;-50
2021/09/15 03:47:21;;;;;;;26.25;5.00;;;28.20;82.40;;;;;;5044625;28;20240;-48
2021/09/15 03:49:47;;;;;;;32.50;6.38;;;28.20;82.80;;;;;;5044180;28;20028;-58
2021/09/15 03:52:14;;;;;;;17.17;4.22;;;28.20;83.00;;;;;;5044367;28;20017;-51
2021/09/15 03:54:42;;;;;;;14.50;3.78;;;28.20;83.10;;;;;;5044158;28;20029;-52
2021/09/15 03:57:09;;;;;;;11.65;4.07;;;28.20;83.40;;;;;;5044537;28;20025;-52
2021/09/15 03:59:35;;;;;;;9.60;3.78;;;28.10;83.90;;;;;;5043946;28;20022;-54
2021/09/15 04:02:02;;;;;;;13.52;4.45;;;28.20;84.10;;;;;;5044336;28;20021;-49
2021/09/15 04:04:29;;;;;;;13.80;4.40;;;28.20;84.10;;;;;;5044280;28;20029;-48
2021/09/15 04:06:56;;;;;;;15.27;4.18;;;28.20;84.30;;;;;;5044481;28;20349;-52
2021/09/15 04:09:22;;;;;;;16.45;3.95;;;28.30;84.30;;;;;;5043646;28;20045;-53
2021/09/15 04:11:49;;;;;;;13.68;4.93;;;28.30;84.30;;;;;;5044340;28;20049;-49
2021/09/15 04:14:16;;;;;;;17.85;5.47;;;28.30;84.40;;;;;;5027289;28;20026;-50
2021/09/15 04:16:42;;;;;;;16.23;5.70;;;28.30;84.60;;;;;;5024530;28;20096;-46
2021/09/15 04:19:09;;;;;;;18.02;5.60;;;28.30;84.70;;;;;;5024138;28;20018;-54
2021/09/15 04:21:36;;;;;;;16.90;4.88;;;28.30;84.60;;;;;;5023640;28;20025;-50
2021/09/15 04:31:58;;;;;;;15.50;4.30;;;28.40;85.40;;;;;;5024313;28;20037;-45
2021/09/15 04:34:25;;;;;;;17.65;4.30;;;28.40;85.30;;;;;;5023758;28;20088;-47
2021/09/15 04:36:51;;;;;;;13.75;4.75;;;28.40;85.20;;;;;;5023794;28;20386;-44
2021/09/15 04:39:18;;;;;;;13.82;4.75;;;28.30;85.40;;;;;;5024564;28;20022;-47
2021/09/15 04:41:45;;;;;;;17.02;4.82;;;28.40;85.50;;;;;;5024308;28;20026;-52
2021/09/15 04:44:11;;;;;;;16.25;5.60;;;28.40;85.30;;;;;;5042060;28;20056;-51
2021/09/15 04:46:38;;;;;;;14.45;5.72;;;28.40;85.20;;;;;;5047990;28;20254;-49
2021/09/15 04:49:04;;;;;;;14.13;5.50;;;28.40;85.20;;;;;;5047590;28;20036;-51
2021/09/15 04:51:31;;;;;;;13.88;5.10;;;28.30;85.70;;;;;;5047926;28;20036;-48
2021/09/15 04:53:58;;;;;;;13.43;4.70;;;28.30;85.90;;;;;;5047360;28;20021;-51
2021/09/15 04:56:24;;;;;;;10.70;4.40;;;28.30;85.90;;;;;;5047457;28;20033;-50
2021/09/15 04:58:51;;;;;;;8.73;3.97;;;28.30;86.20;;;;;;5047236;28;20022;-49
2021/09/15 05:01:17;;;;;;;8.40;3.50;;;28.30;86.10;;;;;;5047655;28;20025;-47
2021/09/15 05:03:44;;;;;;;8.20;3.60;;;28.30;86.10;;;;;;5047350;28;20006;-52
2021/09/15 05:06:10;;;;;;;8.35;3.85;;;28.30;86.00;;;;;;5038703;28;20064;-48
2021/09/15 05:08:37;;;;;;;8.23;3.60;;;28.40;86.20;;;;;;5032894;28;20348;-53
2021/09/15 05:11:04;;;;;;;6.38;3.50;;;28.30;86.10;;;;;;5027500;28;20030;-53
2021/09/15 05:13:30;;;;;;;5.28;3.20;;;28.30;86.10;;;;;;5027364;28;20030;-54
2021/09/15 05:15:57;;;;;;;10.60;3.30;;;28.30;86.40;;;;;;5027464;28;20033;-53
2021/09/15 05:18:26;;;;;;;8.95;3.42;;;28.30;86.60;;;;;;5027141;28;20199;-49
2021/09/15 05:20:53;;;;;;;9.52;3.55;;;28.30;86.80;;;;;;5027231;28;20218;-52
2021/09/15 05:23:20;;;;;;;7.53;2.95;;;28.20;86.70;;;;;;5026383;28;20037;-49
2021/09/15 05:25:46;;;;;;;6.57;3.22;;;28.20;87.00;;;;;;5027278;28;20057;-51
2021/09/15 05:28:13;;;;;;;9.88;2.85;;;28.20;87.10;;;;;;5036771;28;20044;-51
2021/09/15 05:30:39;;;;;;;8.38;2.85;;;28.20;86.90;;;;;;5046900;28;20033;-53
2021/09/15 05:33:08;;;;;;;7.57;2.92;;;28.20;86.60;;;;;;5046770;28;20021;-53
2021/09/15 05:35:34;;;;;;;10.65;2.63;;;28.20;86.70;;;;;;5046640;28;20364;-51
2021/09/15 05:38:01;;;;;;;6.32;2.80;;;28.20;86.50;;;;;;5046711;28;20085;-51
2021/09/15 05:40:28;;;;;;;8.57;3.25;;;28.10;86.60;;;;;;5046639;28;20025;-53
2021/09/15 05:42:54;;;;;;;7.15;2.85;;;28.10;86.40;;;;;;5046641;28;20018;-52
2021/09/15 05:45:21;;;;;;;6.72;3.40;;;28.10;86.20;;;;;;5046708;28;20025;-54
2021/09/15 05:47:47;;;;;;;5.60;3.10;;;28.20;86.10;;;;;;5047106;28;20083;-54
2021/09/15 05:50:14;;;;;;;6.75;3.10;;;28.10;85.90;;;;;;5045192;28;20084;-53
2021/09/15 05:52:40;;;;;;;8.40;2.90;;;28.20;85.70;;;;;;5047056;28;20034;-52
2021/09/15 05:55:07;;;;;;;7.13;3.08;;;28.20;85.80;;;;;;5045873;28;20028;-51
2021/09/15 05:57:34;;;;;;;7.63;2.70;;;28.20;85.60;;;;;;5046749;28;20025;-51
2021/09/15 06:00:02;;;;;;;7.40;2.67;;;28.20;85.60;;;;;;5046589;28;20017;-52
2021/09/15 06:02:29;;;;;;;8.95;3.17;;;28.20;86.30;;;;;;5046813;28;20029;-49
2021/09/15 06:04:55;;;;;;;6.57;3.10;;;28.20;86.00;;;;;;5046299;28;20021;-48
2021/09/15 06:07:22;;;;;;;7.65;3.25;;;28.10;86.20;;;;;;5046495;28;20026;-52
2021/09/15 06:09:49;;;;;;;9.63;3.10;;;28.10;86.00;;;;;;5046289;28;20018;-50
2021/09/15 06:12:15;;;;;;;6.35;2.83;;;28.10;85.60;;;;;;5044686;28;20037;-53
2021/09/15 06:14:42;;;;;;;7.85;3.08;;;28.10;85.90;;;;;;5045696;28;20028;-51
2021/09/15 06:17:08;;;;;;;6.80;2.60;;;28.10;85.80;;;;;;5046467;28;20029;-53
2021/09/15 06:19:35;;;;;;;4.95;2.75;;;28.10;85.80;;;;;;5046072;28;20014;-51
2021/09/15 06:22:02;;;;;;;6.38;3.17;;;28.10;85.90;;;;;;5046281;28;20092;-54
2021/09/15 06:24:28;;;;;;;5.13;2.67;;;28.10;85.90;;;;;;5045983;28;20095;-58
2021/09/15 06:26:55;;;;;;;6.78;3.00;;;28.10;85.70;;;;;;5046031;28;20305;-52
2021/09/15 06:29:21;;;;;;;9.38;2.80;;;28.10;85.90;;;;;;5045869;28;20076;-53
2021/09/15 06:31:48;;;;;;;7.75;2.80;;;28.00;85.80;;;;;;5046057;28;20025;-47
2021/09/15 06:34:15;;;;;;;6.35;2.92;;;28.00;86.10;;;;;;5045635;28;20029;-51
2021/09/15 06:36:42;;;;;;;6.95;2.67;;;28.00;86.00;;;;;;5045913;28;20029;-52
2021/09/15 06:39:09;;;;;;;8.68;3.15;;;28.00;86.10;;;;;;5045637;28;20041;-47
2021/09/15 06:41:36;;;;;;;3.95;2.55;;;28.00;86.10;;;;;;5045852;28;20190;-48
2021/09/15 06:44:03;;;;;;;7.93;3.10;;;28.00;85.90;;;;;;5045557;28;20095;-51
2021/09/15 06:46:30;;;;;;;6.72;2.53;;;28.00;85.80;;;;;;5045683;28;20033;-52
2021/09/15 06:48:56;;;;;;;9.13;2.60;;;28.00;85.60;;;;;;5045590;28;20022;-50
2021/09/15 06:51:23;;;;;;;6.50;2.45;;;28.00;85.50;;;;;;5045500;28;20021;-51
2021/09/15 06:53:49;;;;;;;5.50;2.95;;;27.90;85.80;;;;;;5045289;28;20013;-52
2021/09/15 06:56:16;;;;;;;8.50;3.20;;;27.90;85.70;;;;;;5045493;28;20203;-50
2021/09/15 06:58:43;;;;;;;5.78;2.90;;;27.90;85.70;;;;;;5045260;28;20020;-51
2021/09/15 07:01:09;;;;;;;6.60;2.80;;;27.90;85.80;;;;;;5045432;28;20025;-49
2021/09/15 07:03:36;;;;;;;7.22;2.90;;;27.80;86.00;;;;;;5045266;28;20041;-51
2021/09/15 07:06:02;;;;;;;9.30;3.10;;;27.80;85.90;;;;;;5043957;28;20040;-54
2021/09/15 07:08:29;;;;;;;7.72;2.75;;;27.80;85.60;;;;;;5045036;28;20049;-55
2021/09/15 07:10:56;;;;;;;4.28;2.38;;;27.80;85.40;;;;;;5045280;28;20025;-47
2021/09/15 07:13:23;;;;;;;5.78;3.03;;;27.80;85.30;;;;;;5045009;28;20021;-49
2021/09/15 07:15:50;;;;;;;5.20;2.33;;;27.80;85.20;;;;;;5045099;28;20170;-51
2021/09/15 07:18:17;;;;;;;6.15;2.47;;;27.80;85.30;;;;;;5045258;28;20256;-54
2021/09/15 07:20:43;;;;;;;4.97;2.25;;;27.80;85.30;;;;;;5044903;28;20381;-52
2021/09/15 07:23:10;;;;;;;7.07;2.38;;;27.80;85.50;;;;;;5045135;28;20254;-49
2021/09/15 07:25:36;;;;;;;6.68;2.50;;;27.80;85.40;;;;;;5044898;28;20032;-49
2021/09/15 07:28:03;;;;;;;10.10;2.88;;;27.70;85.10;;;;;;5044780;28;20336;-52
2021/09/15 07:30:30;;;;;;;4.50;2.30;;;27.80;85.60;;;;;;5045124;28;20045;-50
2021/09/15 07:32:56;;;;;;;6.50;2.55;;;27.80;85.40;;;;;;5044959;28;20025;-51
2021/09/15 07:35:23;;;;;;;6.70;2.50;;;27.80;85.10;;;;;;5044634;28;20071;-52
2021/09/15 07:37:50;;;;;;;10.07;2.22;;;27.80;85.20;;;;;;5044703;28;20018;-49
2021/09/15 07:40:16;;;;;;;7.88;2.47;;;27.80;84.90;;;;;;5044830;28;20302;-51
2021/09/15 07:42:44;;;;;;;6.07;2.72;;;27.80;85.00;;;;;;5045194;28;20071;-51
2021/09/15 07:45:12;;;;;;;9.77;2.50;;;27.80;84.90;;;;;;5044781;28;20022;-56
2021/09/15 07:47:41;;;;;;;4.82;2.45;;;27.80;84.80;;;;;;5045134;28;20029;-50
2021/09/15 07:50:09;;;;;;;5.93;2.38;;;27.80;84.70;;;;;;5044646;28;20096;-52
2021/09/15 07:52:35;;;;;;;8.40;2.90;;;27.70;84.60;;;;;;5044842;28;20135;-53
2021/09/15 07:55:04;;;;;;;8.10;2.42;;;27.70;84.80;;;;;;5044175;28;20032;-50
2021/09/15 07:57:30;;;;;;;9.55;2.90;;;27.70;85.00;;;;;;5044578;28;20021;-50
2021/09/15 07:59:57;;;;;;;7.38;2.58;;;27.70;85.30;;;;;;5044201;28;20018;-46
2021/09/15 08:02:23;;;;;;;5.50;2.30;;;27.70;85.60;;;;;;5044595;28;20192;-48
2021/09/15 08:04:50;;;;;;;8.55;2.33;;;27.70;85.60;;;;;;5044024;28;20029;-48
2021/09/15 08:07:17;;;;;;;5.35;2.47;;;27.70;85.40;;;;;;5044203;28;20049;-50
2021/09/15 08:09:43;;;;;;;8.43;2.45;;;27.70;85.50;;;;;;5044227;28;20021;-51
2021/09/15 08:12:10;;;;;;;6.45;2.50;;;27.70;85.20;;;;;;5044466;28;20037;-50
2021/09/15 08:14:37;;;;;;;9.25;2.78;;;27.60;85.20;;;;;;5044212;28;20324;-52
2021/09/15 08:17:03;;;;;;;8.02;2.50;;;27.70;85.60;;;;;;5044463;28;20021;-50
2021/09/15 08:19:30;;;;;;;7.13;2.53;;;27.70;85.60;;;;;;5044155;28;20021;-50
2021/09/15 08:21:58;;;;;;;5.20;2.35;;;27.60;85.40;;;;;;5044019;28;20021;-55
2021/09/15 08:24:24;;;;;;;7.00;2.65;;;27.60;85.80;;;;;;5044018;28;20029;-52
2021/09/15 08:26:51;;;;;;;6.65;2.80;;;27.60;85.70;;;;;;5044249;28;20022;-51
2021/09/15 08:29:17;;;;;;;7.32;2.90;;;27.60;85.80;;;;;;5044015;28;20042;-53
2021/09/15 08:31:44;;;;;;;7.38;2.60;;;27.60;85.90;;;;;;5044399;28;20092;-53
2021/09/15 08:34:11;;;;;;;7.35;2.40;;;27.50;86.10;;;;;;5043823;28;20029;-47
2021/09/15 08:36:37;;;;;;;4.57;2.70;;;27.50;86.30;;;;;;5044414;28;20024;-50
2021/09/15 08:39:04;;;;;;;6.45;2.70;;;27.50;86.40;;;;;;5043831;28;20076;-53
2021/09/15 08:41:31;;;;;;;6.68;2.80;;;27.50;86.10;;;;;;5043892;28;20032;-48
2021/09/15 08:43:58;;;;;;;6.15;2.67;;;27.50;86.10;;;;;;5043956;28;20321;-48
2021/09/15 08:46:26;;;;;;;7.03;2.70;;;27.50;86.60;;;;;;5043634;28;20033;-55
2021/09/15 08:48:55;;;;;;;10.02;2.50;;;27.50;86.20;;;;;;5044224;28;20025;-56
2021/09/15 08:51:25;;;;;;;7.53;2.30;;;27.50;86.20;;;;;;5043976;28;20052;-50
2021/09/15 08:57:15;;;;;;;3.63;2.60;;;27.50;86.60;;;;;;5028432;28;20265;-47
2021/09/15 08:59:41;;;;;;;5.18;2.50;;;27.40;86.50;;;;;;5043568;28;20021;-54
2021/09/15 09:02:11;;;;;;;7.28;2.90;;;27.40;87.40;;;;;;5043927;28;20029;-51
2021/09/15 09:05:01;;;;;;;5.22;2.75;;;27.30;86.90;;;;;;5043639;28;20029;-49
2021/09/15 09:07:29;;;;;;;7.05;3.10;;;27.30;86.60;;;;;;5043714;28;20045;-51
2021/09/15 09:09:58;;;;;;;6.55;3.08;;;27.40;86.60;;;;;;5043934;28;20025;-51
2021/09/15 09:12:31;;;;;;;5.97;2.80;;;27.40;86.70;;;;;;5044108;28;20068;-49
2021/09/15 09:15:15;;;;;;;;;;;27.40;86.90;;;;;;5043763;28;20033;-46
2021/09/15 09:17:43;;;;;;;6.97;3.08;;;27.40;87.20;;;;;;5044000;28;19987;-48
2021/09/15 09:20:31;;;;;;;5.95;2.35;;;27.30;87.10;;;;;;5043427;28;20025;-51
2021/09/15 09:23:04;;;;;;;7.60;2.58;;;27.30;87.00;;;;;;5043393;28;20029;-52
2021/09/15 09:25:37;;;;;;;6.20;2.60;;;27.30;87.00;;;;;;5043549;28;20024;-48
2021/09/15 09:28:26;;;;;;;6.93;2.60;;;27.40;87.10;;;;;;5043651;28;20033;-50
2021/09/15 09:30:58;;;;;;;10.07;2.95;;;27.40;87.20;;;;;;5047173;28;20055;-54
2021/09/15 09:33:26;;;;;;;4.70;2.55;;;27.40;87.30;;;;;;5047276;28;20030;-50
2021/09/15 09:36:09;;;;;;;4.53;2.72;;;27.30;87.50;;;;;;5047116;28;20049;-52
2021/09/15 09:38:38;;;;;;;7.80;3.63;;;27.30;87.30;;;;;;5046779;28;20296;-49
2021/09/15 09:41:11;;;;;;;12.98;3.20;;;27.30;87.30;;;;;;5046932;28;20025;-48
2021/09/15 09:43:40;;;;;;;9.02;3.10;;;27.30;87.20;;;;;;5046716;28;20084;-51
2021/09/15 09:46:09;;;;;;;9.02;2.95;;;27.30;87.10;;;;;;5047220;28;20353;-50
2021/09/15 09:48:42;;;;;;;6.20;3.00;;;27.30;87.10;;;;;;5046890;28;20313;-51
2021/09/15 09:51:41;;;;;;;;;;;27.30;87.10;;;;;;5047305;28;20032;-52
2021/09/15 09:54:29;;;;;;;9.43;3.08;;;27.30;87.10;;;;;;5024341;28;19909;-49
2021/09/15 09:56:58;;;;;;;6.28;2.92;;;27.20;87.00;;;;;;5046842;28;20029;-51
2021/09/15 09:59:28;;;;;;;6.38;3.10;;;27.20;87.50;;;;;;5046855;28;20045;-51
2021/09/15 10:01:57;;;;;;;7.78;3.17;;;27.20;87.40;;;;;;5046895;28;20025;-48
2021/09/15 10:04:26;;;;;;;5.55;3.10;;;27.20;87.20;;;;;;5046585;28;20030;-53
2021/09/15 10:06:52;;;;;;;6.80;2.63;;;27.20;86.80;;;;;;5046203;28;20222;-53
2021/09/15 10:09:21;;;;;;;10.98;3.20;;;27.20;86.60;;;;;;5046249;28;20037;-48
2021/09/15 10:11:47;;;;;;;6.63;3.10;;;27.20;86.60;;;;;;5046572;28;20060;-52
2021/09/15 10:14:17;;;;;;;7.90;3.50;;;27.20;86.30;;;;;;5046038;28;20029;-52
2021/09/15 10:16:51;;;;;;;9.85;3.17;;;27.20;86.00;;;;;;5046410;28;20036;-48
2021/09/15 10:19:25;;;;;;;5.20;2.42;;;27.20;85.60;;;;;;5046254;28;20081;-49
2021/09/15 10:22:02;;;;;;;7.75;2.97;;;27.20;85.50;;;;;;5046525;28;20358;-51
2021/09/15 10:24:47;;;;;;;6.53;2.90;;;27.10;85.10;;;;;;5046056;28;20017;-47
2021/09/15 10:27:15;;;;;;;8.40;3.35;;;27.20;84.80;;;;;;5046357;28;20199;-50
2021/09/15 10:29:42;;;;;;;13.02;3.00;;;27.20;84.60;;;;;;5046031;28;20045;-52
2021/09/15 10:32:13;;;;;;;7.82;3.10;;;27.20;84.30;;;;;;5046162;28;20093;-47
2021/09/15 10:34:39;;;;;;;9.68;3.03;;;27.20;84.00;;;;;;5045933;28;20100;-51
2021/09/15 10:37:12;;;;;;;6.60;3.10;;;27.20;84.10;;;;;;5046226;28;20325;-49
2021/09/15 10:40:11;;;;;;;7.97;2.80;;;27.20;83.80;;;;;;5045812;28;20041;-58
2021/09/15 10:42:48;;;;;;;9.23;2.60;;;27.20;83.60;;;;;;5045990;28;20302;-51
2021/09/15 10:45:21;;;;;;;5.85;3.15;;;27.20;83.40;;;;;;5045777;28;20092;-48
2021/09/15 10:47:53;;;;;;;;;;;27.20;83.40;;;;;;5046587;28;20025;-49
2021/09/15 10:50:28;;;;;;;4.95;2.83;;;27.10;83.40;;;;;;5045933;28;19908;-47
2021/09/15 10:53:04;;;;;;;8.73;3.55;;;27.10;83.50;;;;;;5045622;28;20025;-52
2021/09/15 10:55:42;;;;;;;10.02;3.50;;;27.10;83.30;;;;;;5045377;28;20191;-49
2021/09/15 10:58:21;;;;;;;7.22;2.92;;;27.10;83.20;;;;;;5045468;28;20230;-46
2021/09/15 11:00:54;;;;;;;12.32;3.38;;;27.10;83.40;;;;;;5045300;28;20025;-51
2021/09/15 11:03:57;;;;;;;6.78;3.88;;;27.10;83.60;;;;;;5045291;28;20045;-56
2021/09/15 11:06:24;;;;;;;4.75;3.40;;;27.10;83.60;;;;;;5045117;28;20043;-47
2021/09/15 11:08:52;;;;;;;13.15;6.47;;;27.10;83.60;;;;;;5045079;28;20274;-50
2021/09/15 11:11:27;;;;;;;11.98;7.95;;;27.10;83.60;;;;;;5045588;28;20048;-51
2021/09/15 11:14:01;;;;;;;10.35;6.80;;;27.10;83.70;;;;;;5045184;28;20013;-47
2021/09/15 11:16:37;;;;;;;14.07;7.75;;;27.10;83.40;;;;;;5045072;28;20031;-52
2021/09/15 11:19:18;;;;;;;11.35;7.22;;;27.20;83.50;;;;;;5045207;28;20013;-51
2021/09/15 11:21:55;;;;;;;10.48;6.07;;;27.20;83.50;;;;;;5045155;28;20025;-51
2021/09/15 11:24:29;;;;;;;11.65;5.70;;;27.20;83.40;;;;;;5044766;28;20029;-52
2021/09/15 11:27:17;;;;;;;12.10;6.20;;;27.30;83.40;;;;;;5045097;28;20198;-53
2021/09/15 11:30:07;;;;;;;13.30;4.72;;;27.30;83.30;;;;;;5044780;28;20021;-52
2021/09/15 11:32:34;;;;;;;12.27;4.47;;;27.40;83.00;;;;;;5040579;28;20038;-49
2021/09/15 11:35:00;;;;;;;8.90;3.95;;;27.40;82.80;;;;;;5044637;28;20084;-48
2021/09/15 11:37:31;;;;;;;8.43;4.20;;;27.40;82.80;;;;;;5045035;28;20044;-54
2021/09/15 11:40:05;;;;;;;10.93;4.00;;;27.50;83.00;;;;;;5044696;28;20319;-50
2021/09/15 11:42:35;;;;;;;11.90;3.97;;;27.50;83.00;;;;;;5044951;28;20033;-51
2021/09/15 11:45:19;;;;;;;14.13;3.92;;;27.60;83.20;;;;;;5044394;28;20044;-51
2021/09/15 11:47:47;;;;;;;13.80;3.50;;;27.60;83.80;;;;;;5044902;28;20132;-54
2021/09/15 11:50:20;;;;;;;11.55;3.88;;;27.70;83.50;;;;;;5044282;28;20080;-51
2021/09/15 11:52:54;;;;;;;13.80;3.92;;;27.70;83.50;;;;;;5044466;28;20031;-51
2021/09/15 11:55:22;;;;;;;16.85;3.78;;;27.70;83.50;;;;;;5044200;28;20056;-49
2021/09/15 11:58:02;;;;;;;15.88;4.50;;;27.70;83.50;;;;;;5044446;28;20257;-51
2021/09/15 12:00:32;;;;;;;13.93;4.10;;;27.80;83.60;;;;;;5043864;28;20045;-48
2021/09/15 12:03:05;;;;;;;12.70;3.80;;;27.80;83.50;;;;;;5044430;28;20021;-49
2021/09/15 12:05:33;;;;;;;12.07;3.72;;;27.80;83.40;;;;;;5044277;28;20084;-51
2021/09/15 12:08:00;;;;;;;14.05;3.70;;;27.90;83.40;;;;;;5043834;28;20113;-54
2021/09/15 12:10:27;;;;;;;12.02;3.90;;;27.90;83.20;;;;;;5044030;28;20039;-46
2021/09/15 12:12:58;;;;;;;8.88;3.50;;;27.90;83.20;;;;;;5043983;28;20195;-49
2021/09/15 12:15:25;;;;;;;10.18;3.15;;;28.00;83.90;;;;;;5044024;28;20084;-52
2021/09/15 12:17:58;;;;;;;12.65;3.67;;;28.00;83.20;;;;;;5043895;28;20027;-52
2021/09/15 12:20:48;;;;;;;7.82;3.50;;;28.00;82.90;;;;;;5044111;28;20022;-50
2021/09/15 12:23:17;;;;;;;8.68;2.97;;;28.10;83.10;;;;;;5044154;28;20033;-50
2021/09/15 12:25:59;;;;;;;8.18;3.08;;;28.10;83.20;;;;;;5043640;28;20057;-48
2021/09/15 12:28:27;;;;;;;13.95;3.03;;;28.10;82.70;;;;;;5043675;28;20033;-52
2021/09/15 12:30:55;;;;;;;8.23;2.95;;;28.20;82.80;;;;;;5043895;28;20044;-52
2021/09/15 12:33:39;;;;;;;7.93;3.10;;;28.20;82.40;;;;;;5043656;28;20074;-46
2021/09/15 12:36:16;;;;;;;6.72;2.97;;;28.20;82.50;;;;;;5043681;28;20033;-50
2021/09/15 12:38:57;;;;;;;7.97;2.78;;;28.20;82.50;;;;;;5043608;28;20360;-52
2021/09/15 12:41:57;;;;;;;5.03;2.80;;;28.30;82.50;;;;;;5043891;28;20026;-51
2021/09/15 12:44:34;;;;;;;9.60;2.97;;;28.30;82.20;;;;;;5043885;28;20269;-49
2021/09/15 12:47:05;;;;;;;7.85;2.83;;;28.30;82.40;;;;;;5044012;28;20029;-50
2021/09/15 12:49:38;;;;;;;12.18;3.13;;;28.40;82.20;;;;;;5043599;28;20075;-47
2021/09/15 12:52:19;;;;;;;12.48;3.00;;;28.30;82.20;;;;;;5043322;28;20025;-52
2021/09/15 12:54:54;;;;;;;6.38;2.75;;;28.40;82.20;;;;;;5043613;28;20321;-49
2021/09/15 12:57:29;;;;;;;7.45;3.00;;;28.40;82.10;;;;;;5043902;28;20079;-47
2021/09/15 13:00:16;;;;;;;7.57;2.70;;;28.40;82.00;;;;;;5043569;28;20025;-46
2021/09/15 13:03:03;;;;;;;8.30;2.47;;;28.40;81.90;;;;;;5043981;28;20021;-49
2021/09/15 13:05:39;;;;;;;8.55;3.10;;;28.40;81.90;;;;;;5047027;28;20030;-46